CSN3272 ZHCC-ZGSZ
Flight info
| Callsign | CSN3272 |
|---|---|
| Flight time | 2h 0m |
| Altitude | 32100 |
| Route | DUD9Y DUDBI W37 OMBEB R473 NOLON W90 POU W7 SAREX SAREX3 |
| Aircraft | B738/M-SDE2E3FGHIRWXY/LB1 |
Departure
| Time | 2026-04-29 12:01 |
|---|---|
| Airport | Zhengzhou Xinzheng International Airport (ZHCC) |
Arrival
| Time | 2026-04-29 14:01 |
|---|---|
| Airport | Shenzhen Bao'an International Airport (ZGSZ) |
| Time | Latitude | Longitude | Altitude | Speed | Heading |
|---|---|---|---|---|---|
| 2026-04-29 11:41 | 34.52934 | 113.85047 | 504 ft | 0 kts | 202° |
| 2026-04-29 11:55 | 34.52953 | 113.85057 | 504 ft | 4 kts | 202° |
| 2026-04-29 11:55 | 34.52973 | 113.85065 | 504 ft | 4 kts | 168° |
| 2026-04-29 11:56 | 34.52993 | 113.85049 | 504 ft | 4 kts | 122° |
| 2026-04-29 11:56 | 34.53004 | 113.85022 | 504 ft | 2 kts | 112° |
| 2026-04-29 11:56 | 34.53005 | 113.85021 | 504 ft | 1 kts | 112° |
| 2026-04-29 11:59 | 34.51363 | 113.85806 | 501 ft | 0 kts | 292° |
| 2026-04-29 12:00 | 34.51424 | 113.85628 | 500 ft | 57 kts | 292° |
| 2026-04-29 12:00 | 34.51665 | 113.84922 | 495 ft | 122 kts | 292° |
| 2026-04-29 12:00 | 34.52058 | 113.83772 | 522 ft | 170 kts | 292° |
| 2026-04-29 12:01 | 34.52519 | 113.82397 | 1056 ft | 178 kts | 291° |
| 2026-04-29 12:01 | 34.52939 | 113.80926 | 1616 ft | 190 kts | 283° |
| 2026-04-29 12:01 | 34.53124 | 113.79334 | 2314 ft | 196 kts | 273° |
| 2026-04-29 12:01 | 34.53226 | 113.77597 | 2724 ft | 213 kts | 274° |
| 2026-04-29 12:02 | 34.53350 | 113.75780 | 2980 ft | 220 kts | 274° |
| 2026-04-29 12:02 | 34.53400 | 113.73937 | 2987 ft | 218 kts | 261° |
| 2026-04-29 12:02 | 34.52714 | 113.72358 | 3001 ft | 216 kts | 218° |
| 2026-04-29 12:02 | 34.51378 | 113.71539 | 3012 ft | 217 kts | 200° |
| 2026-04-29 12:03 | 34.49980 | 113.70833 | 3002 ft | 218 kts | 202° |
| 2026-04-29 12:03 | 34.48583 | 113.70102 | 2999 ft | 219 kts | 202° |
| 2026-04-29 12:03 | 34.47190 | 113.69372 | 2992 ft | 218 kts | 202° |
| 2026-04-29 12:03 | 34.45794 | 113.68644 | 2988 ft | 218 kts | 202° |
| 2026-04-29 12:04 | 34.44405 | 113.67920 | 2994 ft | 217 kts | 202° |
| 2026-04-29 12:04 | 34.43010 | 113.67194 | 3104 ft | 220 kts | 202° |
| 2026-04-29 12:04 | 34.41605 | 113.66465 | 3699 ft | 219 kts | 202° |
| 2026-04-29 12:04 | 34.40206 | 113.65736 | 4249 ft | 223 kts | 202° |
| 2026-04-29 12:05 | 34.38730 | 113.64973 | 4470 ft | 241 kts | 202° |
| 2026-04-29 12:05 | 34.37164 | 113.64165 | 4925 ft | 247 kts | 202° |
| 2026-04-29 12:05 | 34.35554 | 113.63333 | 5486 ft | 249 kts | 202° |
| 2026-04-29 12:05 | 34.33958 | 113.62512 | 6017 ft | 251 kts | 203° |
| 2026-04-29 12:06 | 34.32347 | 113.61683 | 6535 ft | 253 kts | 203° |
| 2026-04-29 12:06 | 34.30742 | 113.60854 | 7078 ft | 255 kts | 203° |
| 2026-04-29 12:06 | 34.29089 | 113.60000 | 7646 ft | 256 kts | 203° |
| 2026-04-29 12:06 | 34.27440 | 113.59152 | 8148 ft | 259 kts | 202° |
| 2026-04-29 12:07 | 34.25788 | 113.58323 | 8664 ft | 261 kts | 203° |
| 2026-04-29 12:07 | 34.24116 | 113.57440 | 9172 ft | 262 kts | 203° |
| 2026-04-29 12:07 | 34.22421 | 113.56567 | 9656 ft | 264 kts | 201° |
| 2026-04-29 12:07 | 34.20726 | 113.55693 | 10198 ft | 264 kts | 203° |
| 2026-04-29 12:08 | 34.19044 | 113.54819 | 10768 ft | 263 kts | 204° |
| 2026-04-29 12:08 | 34.17351 | 113.53942 | 11244 ft | 266 kts | 204° |
| 2026-04-29 12:08 | 34.15636 | 113.53059 | 11715 ft | 270 kts | 205° |
| 2026-04-29 12:08 | 34.13894 | 113.52158 | 11773 ft | 274 kts | 205° |
| 2026-04-29 12:09 | 34.12128 | 113.51254 | 11796 ft | 278 kts | 204° |
| 2026-04-29 12:09 | 34.10248 | 113.50705 | 11778 ft | 281 kts | 179° |
| 2026-04-29 12:09 | 34.08429 | 113.51454 | 11837 ft | 280 kts | 148° |
| 2026-04-29 12:09 | 34.06694 | 113.52539 | 11786 ft | 283 kts | 160° |
| 2026-04-29 12:10 | 34.04827 | 113.53333 | 11771 ft | 286 kts | 160° |
| 2026-04-29 12:10 | 34.02897 | 113.54205 | 11779 ft | 309 kts | 159° |
| 2026-04-29 12:10 | 34.00799 | 113.55186 | 11799 ft | 337 kts | 159° |
| 2026-04-29 12:10 | 33.98533 | 113.56260 | 11827 ft | 363 kts | 159° |
| 2026-04-29 12:11 | 33.96128 | 113.57415 | 11984 ft | 382 kts | 159° |
| 2026-04-29 12:11 | 33.93619 | 113.58622 | 12355 ft | 393 kts | 159° |
| 2026-04-29 12:11 | 33.91063 | 113.59856 | 12915 ft | 398 kts | 159° |
| 2026-04-29 12:11 | 33.88479 | 113.61103 | 13527 ft | 402 kts | 159° |
| 2026-04-29 12:12 | 33.85852 | 113.62373 | 13906 ft | 413 kts | 160° |
| 2026-04-29 12:12 | 33.83165 | 113.63663 | 14462 ft | 418 kts | 160° |
| 2026-04-29 12:12 | 33.80457 | 113.64963 | 15125 ft | 421 kts | 160° |
| 2026-04-29 12:12 | 33.77766 | 113.66257 | 15713 ft | 425 kts | 161° |
| 2026-04-29 12:13 | 33.75001 | 113.67585 | 16258 ft | 431 kts | 161° |
| 2026-04-29 12:13 | 33.72207 | 113.68924 | 16830 ft | 435 kts | 162° |
| 2026-04-29 12:13 | 33.69393 | 113.70314 | 17364 ft | 441 kts | 157° |
| 2026-04-29 12:13 | 33.66857 | 113.72451 | 17869 ft | 454 kts | 135° |
| 2026-04-29 12:14 | 33.65030 | 113.75563 | 18441 ft | 459 kts | 122° |
| 2026-04-29 12:14 | 33.63255 | 113.78763 | 18928 ft | 463 kts | 128° |
| 2026-04-29 12:14 | 33.61298 | 113.81853 | 19386 ft | 467 kts | 130° |
| 2026-04-29 12:14 | 33.59282 | 113.84924 | 19849 ft | 470 kts | 130° |
| 2026-04-29 12:15 | 33.57244 | 113.88029 | 19840 ft | 474 kts | 130° |
| 2026-04-29 12:15 | 33.55228 | 113.91135 | 19853 ft | 470 kts | 130° |
| 2026-04-29 12:15 | 33.53238 | 113.94233 | 19852 ft | 469 kts | 129° |
| 2026-04-29 12:15 | 33.51260 | 113.97341 | 19892 ft | 472 kts | 129° |
| 2026-04-29 12:16 | 33.49258 | 114.00490 | 20254 ft | 476 kts | 129° |
| 2026-04-29 12:16 | 33.47251 | 114.03646 | 20850 ft | 475 kts | 130° |
| 2026-04-29 12:16 | 33.45246 | 114.06794 | 21385 ft | 477 kts | 130° |
| 2026-04-29 12:16 | 33.43227 | 114.09960 | 21800 ft | 480 kts | 131° |
| 2026-04-29 12:17 | 33.41193 | 114.13147 | 22173 ft | 484 kts | 131° |
| 2026-04-29 12:17 | 33.39142 | 114.16358 | 22568 ft | 487 kts | 131° |
| 2026-04-29 12:17 | 33.37085 | 114.19594 | 22974 ft | 490 kts | 129° |
| 2026-04-29 12:17 | 33.35392 | 114.23171 | 23307 ft | 500 kts | 114° |
| 2026-04-29 12:18 | 33.34257 | 114.27115 | 23718 ft | 503 kts | 110° |
| 2026-04-29 12:18 | 33.33157 | 114.31102 | 24035 ft | 506 kts | 111° |
| 2026-04-29 12:18 | 33.32000 | 114.35092 | 24337 ft | 509 kts | 112° |
| 2026-04-29 12:18 | 33.30791 | 114.39082 | 24654 ft | 512 kts | 113° |
| 2026-04-29 12:19 | 33.29552 | 114.43070 | 25007 ft | 513 kts | 113° |
| 2026-04-29 12:19 | 33.28294 | 114.47073 | 25332 ft | 515 kts | 114° |
| 2026-04-29 12:19 | 33.27032 | 114.51085 | 25627 ft | 518 kts | 114° |
| 2026-04-29 12:19 | 33.25765 | 114.55128 | 25894 ft | 521 kts | 114° |
| 2026-04-29 12:20 | 33.24493 | 114.59189 | 26195 ft | 523 kts | 114° |
| 2026-04-29 12:20 | 33.23035 | 114.63154 | 26449 ft | 519 kts | 126° |
| 2026-04-29 12:20 | 33.20748 | 114.66400 | 26673 ft | 506 kts | 147° |
| 2026-04-29 12:20 | 33.17817 | 114.68572 | 27021 ft | 491 kts | 162° |
| 2026-04-29 12:21 | 33.14649 | 114.69966 | 27368 ft | 481 kts | 172° |
| 2026-04-29 12:21 | 33.11402 | 114.70658 | 27656 ft | 469 kts | 184° |
| 2026-04-29 12:21 | 33.08188 | 114.70515 | 28018 ft | 458 kts | 193° |
| 2026-04-29 12:21 | 33.05032 | 114.70124 | 28531 ft | 454 kts | 193° |
| 2026-04-29 12:22 | 33.01895 | 114.69759 | 28955 ft | 452 kts | 193° |
| 2026-04-29 12:22 | 32.98758 | 114.69421 | 29265 ft | 453 kts | 193° |
| 2026-04-29 12:22 | 32.95618 | 114.69104 | 29660 ft | 452 kts | 192° |
| 2026-04-29 12:22 | 32.92489 | 114.68799 | 30109 ft | 449 kts | 193° |
| 2026-04-29 12:23 | 32.89385 | 114.68497 | 30542 ft | 447 kts | 193° |
| 2026-04-29 12:23 | 32.86332 | 114.68203 | 30976 ft | 444 kts | 193° |
| 2026-04-29 12:23 | 32.83265 | 114.67915 | 31437 ft | 441 kts | 193° |
| 2026-04-29 12:23 | 32.80214 | 114.67631 | 31812 ft | 439 kts | 193° |
| 2026-04-29 12:24 | 32.77176 | 114.67346 | 32177 ft | 437 kts | 193° |
| 2026-04-29 12:24 | 32.74118 | 114.67061 | 32234 ft | 434 kts | 193° |
| 2026-04-29 12:24 | 32.68143 | 114.66497 | 32264 ft | 435 kts | 193° |
| 2026-04-29 12:25 | 32.62092 | 114.65925 | 32283 ft | 437 kts | 193° |
| 2026-04-29 12:26 | 32.53949 | 114.65160 | 32282 ft | 440 kts | 193° |
| 2026-04-29 12:26 | 32.46852 | 114.64498 | 32272 ft | 440 kts | 193° |
| 2026-04-29 12:27 | 32.40740 | 114.63928 | 32276 ft | 441 kts | 193° |
| 2026-04-29 12:27 | 32.35621 | 114.63446 | 32273 ft | 440 kts | 193° |
| 2026-04-29 12:28 | 32.29519 | 114.62854 | 32276 ft | 440 kts | 194° |
| 2026-04-29 12:28 | 32.23427 | 114.62258 | 32279 ft | 439 kts | 194° |
| 2026-04-29 12:29 | 32.17345 | 114.61667 | 32272 ft | 438 kts | 194° |
| 2026-04-29 12:29 | 32.11273 | 114.61079 | 32275 ft | 437 kts | 194° |
| 2026-04-29 12:30 | 32.05214 | 114.60489 | 32274 ft | 437 kts | 194° |
| 2026-04-29 12:30 | 31.99202 | 114.59910 | 32278 ft | 437 kts | 194° |
| 2026-04-29 12:31 | 31.93146 | 114.59326 | 32272 ft | 437 kts | 194° |
| 2026-04-29 12:31 | 31.87084 | 114.58742 | 32276 ft | 437 kts | 194° |
| 2026-04-29 12:32 | 31.81017 | 114.58158 | 32275 ft | 437 kts | 194° |
| 2026-04-29 12:32 | 31.74949 | 114.57576 | 32290 ft | 437 kts | 194° |
| 2026-04-29 12:33 | 31.68882 | 114.56992 | 32285 ft | 438 kts | 194° |
| 2026-04-29 12:33 | 31.62806 | 114.56408 | 32288 ft | 438 kts | 194° |
| 2026-04-29 12:34 | 31.56734 | 114.55824 | 32287 ft | 438 kts | 194° |
| 2026-04-29 12:34 | 31.50672 | 114.55234 | 32277 ft | 437 kts | 194° |
| 2026-04-29 12:35 | 31.44610 | 114.54647 | 32285 ft | 437 kts | 194° |
| 2026-04-29 12:35 | 31.38564 | 114.54066 | 32277 ft | 435 kts | 194° |
| 2026-04-29 12:36 | 31.32523 | 114.53480 | 32288 ft | 436 kts | 194° |
| 2026-04-29 12:36 | 31.26498 | 114.52864 | 32282 ft | 432 kts | 197° |
| 2026-04-29 12:36 | 31.23612 | 114.52094 | 32291 ft | 420 kts | 205° |
| 2026-04-29 12:37 | 31.20913 | 114.50871 | 32279 ft | 412 kts | 213° |
| 2026-04-29 12:37 | 31.15791 | 114.47895 | 32284 ft | 413 kts | 213° |
| 2026-04-29 12:38 | 31.10594 | 114.45019 | 32282 ft | 414 kts | 212° |
| 2026-04-29 12:38 | 31.05397 | 114.42141 | 32275 ft | 415 kts | 212° |
| 2026-04-29 12:39 | 31.00167 | 114.39252 | 32289 ft | 416 kts | 213° |
| 2026-04-29 12:39 | 30.94975 | 114.36370 | 32284 ft | 417 kts | 212° |
| 2026-04-29 12:40 | 30.89721 | 114.33508 | 32287 ft | 418 kts | 211° |
| 2026-04-29 12:40 | 30.84416 | 114.30741 | 32283 ft | 418 kts | 211° |
| 2026-04-29 12:41 | 30.79122 | 114.27956 | 32284 ft | 417 kts | 212° |
| 2026-04-29 12:41 | 30.73873 | 114.25104 | 32283 ft | 416 kts | 212° |
| 2026-04-29 12:42 | 30.68637 | 114.22257 | 32288 ft | 415 kts | 212° |
| 2026-04-29 12:42 | 30.63397 | 114.19419 | 32281 ft | 416 kts | 212° |
| 2026-04-29 12:43 | 30.58158 | 114.16592 | 32290 ft | 415 kts | 212° |
| 2026-04-29 12:43 | 30.52961 | 114.13697 | 32285 ft | 415 kts | 212° |
| 2026-04-29 12:44 | 30.47726 | 114.10870 | 32282 ft | 415 kts | 212° |
| 2026-04-29 12:44 | 30.42505 | 114.08064 | 32275 ft | 413 kts | 212° |
| 2026-04-29 12:45 | 30.37282 | 114.05270 | 32295 ft | 414 kts | 212° |
| 2026-04-29 12:45 | 30.32044 | 114.02460 | 32293 ft | 415 kts | 212° |
| 2026-04-29 12:46 | 30.26810 | 113.99642 | 32290 ft | 414 kts | 212° |
| 2026-04-29 12:46 | 30.21593 | 113.96833 | 32291 ft | 415 kts | 211° |
| 2026-04-29 12:47 | 30.16364 | 113.94013 | 32276 ft | 416 kts | 211° |
| 2026-04-29 12:47 | 30.11068 | 113.91295 | 32285 ft | 416 kts | 212° |
| 2026-04-29 12:48 | 30.05820 | 113.88470 | 32286 ft | 417 kts | 212° |
| 2026-04-29 12:48 | 30.00591 | 113.85695 | 32295 ft | 416 kts | 212° |
| 2026-04-29 12:49 | 29.95337 | 113.82869 | 32291 ft | 417 kts | 212° |
| 2026-04-29 12:49 | 29.90059 | 113.80078 | 32293 ft | 418 kts | 210° |
| 2026-04-29 12:50 | 29.84355 | 113.78265 | 32289 ft | 434 kts | 195° |
| 2026-04-29 12:50 | 29.78257 | 113.77860 | 32282 ft | 440 kts | 192° |
| 2026-04-29 12:51 | 29.72157 | 113.77466 | 32286 ft | 438 kts | 192° |
| 2026-04-29 12:51 | 29.66084 | 113.77047 | 32280 ft | 436 kts | 192° |
| 2026-04-29 12:52 | 29.60030 | 113.76627 | 32283 ft | 436 kts | 192° |
| 2026-04-29 12:52 | 29.53978 | 113.76205 | 32287 ft | 436 kts | 192° |
| 2026-04-29 12:53 | 29.47922 | 113.75790 | 32276 ft | 436 kts | 192° |
| 2026-04-29 12:53 | 29.41873 | 113.75364 | 32298 ft | 435 kts | 192° |
| 2026-04-29 12:54 | 29.35807 | 113.74943 | 32271 ft | 438 kts | 192° |
| 2026-04-29 12:54 | 29.29727 | 113.74528 | 32276 ft | 438 kts | 192° |
| 2026-04-29 12:55 | 29.23643 | 113.74118 | 32285 ft | 440 kts | 191° |
| 2026-04-29 12:55 | 29.17471 | 113.74189 | 32293 ft | 445 kts | 187° |
| 2026-04-29 12:56 | 29.11283 | 113.74415 | 32291 ft | 444 kts | 187° |
| 2026-04-29 12:56 | 29.05153 | 113.74615 | 32294 ft | 443 kts | 187° |
| 2026-04-29 12:57 | 28.98989 | 113.74794 | 32286 ft | 443 kts | 187° |
| 2026-04-29 12:57 | 28.92827 | 113.74966 | 32277 ft | 443 kts | 187° |
| 2026-04-29 12:58 | 28.86671 | 113.75140 | 32290 ft | 443 kts | 187° |
| 2026-04-29 12:58 | 28.80514 | 113.75316 | 32285 ft | 442 kts | 187° |
| 2026-04-29 12:59 | 28.74373 | 113.75481 | 32275 ft | 441 kts | 188° |
| 2026-04-29 12:59 | 28.68307 | 113.75203 | 32294 ft | 434 kts | 192° |
| 2026-04-29 13:00 | 28.62274 | 113.74699 | 32284 ft | 435 kts | 192° |
| 2026-04-29 13:00 | 28.56233 | 113.74224 | 32288 ft | 435 kts | 192° |
| 2026-04-29 13:01 | 28.50186 | 113.73777 | 32292 ft | 436 kts | 191° |
| 2026-04-29 13:01 | 28.44134 | 113.73342 | 32282 ft | 436 kts | 192° |
| 2026-04-29 13:02 | 28.38079 | 113.72906 | 32299 ft | 435 kts | 192° |
| 2026-04-29 13:02 | 28.32044 | 113.72465 | 32267 ft | 434 kts | 191° |
| 2026-04-29 13:03 | 28.26019 | 113.72029 | 32282 ft | 434 kts | 191° |
| 2026-04-29 13:03 | 28.19991 | 113.71581 | 32281 ft | 434 kts | 192° |
| 2026-04-29 13:04 | 28.13964 | 113.71100 | 32285 ft | 434 kts | 192° |
| 2026-04-29 13:04 | 28.07937 | 113.70614 | 32278 ft | 435 kts | 192° |
| 2026-04-29 13:05 | 28.01950 | 113.70122 | 32293 ft | 434 kts | 192° |
| 2026-04-29 13:05 | 27.95914 | 113.69584 | 32284 ft | 435 kts | 192° |
| 2026-04-29 13:06 | 27.89875 | 113.69016 | 32278 ft | 435 kts | 192° |
| 2026-04-29 13:06 | 27.83841 | 113.68470 | 32277 ft | 435 kts | 192° |
| 2026-04-29 13:07 | 27.77807 | 113.67919 | 32283 ft | 435 kts | 192° |
| 2026-04-29 13:07 | 27.71781 | 113.67375 | 32285 ft | 434 kts | 192° |
| 2026-04-29 13:08 | 27.65765 | 113.66832 | 32284 ft | 433 kts | 192° |
| 2026-04-29 13:08 | 27.59722 | 113.66527 | 32272 ft | 436 kts | 189° |
| 2026-04-29 13:09 | 27.53648 | 113.66434 | 32280 ft | 436 kts | 188° |
| 2026-04-29 13:09 | 27.47576 | 113.66339 | 32289 ft | 436 kts | 189° |
| 2026-04-29 13:10 | 27.41506 | 113.66211 | 32252 ft | 436 kts | 190° |
| 2026-04-29 13:10 | 27.35442 | 113.66069 | 32295 ft | 437 kts | 188° |
| 2026-04-29 13:11 | 27.29311 | 113.65957 | 32264 ft | 442 kts | 189° |
| 2026-04-29 13:11 | 27.23159 | 113.65813 | 32267 ft | 442 kts | 189° |
| 2026-04-29 13:12 | 27.16981 | 113.65986 | 32292 ft | 451 kts | 180° |
| 2026-04-29 13:12 | 27.10803 | 113.67721 | 32299 ft | 459 kts | 173° |
| 2026-04-29 13:13 | 27.04647 | 113.69576 | 32284 ft | 457 kts | 174° |
| 2026-04-29 13:13 | 26.98494 | 113.71401 | 32295 ft | 457 kts | 173° |
| 2026-04-29 13:14 | 26.93385 | 113.72941 | 32281 ft | 457 kts | 173° |
| 2026-04-29 13:14 | 26.86239 | 113.75057 | 32283 ft | 457 kts | 173° |
| 2026-04-29 13:15 | 26.80097 | 113.76863 | 32286 ft | 456 kts | 173° |
| 2026-04-29 13:15 | 26.73953 | 113.78671 | 32271 ft | 456 kts | 173° |
| 2026-04-29 13:16 | 26.67832 | 113.80571 | 32271 ft | 457 kts | 172° |
| 2026-04-29 13:16 | 26.62752 | 113.82188 | 32273 ft | 456 kts | 172° |
| 2026-04-29 13:17 | 26.56646 | 113.84118 | 32270 ft | 456 kts | 172° |
| 2026-04-29 13:17 | 26.50544 | 113.86032 | 32270 ft | 455 kts | 172° |
| 2026-04-29 13:18 | 26.44434 | 113.87852 | 32262 ft | 454 kts | 173° |
| 2026-04-29 13:18 | 26.38318 | 113.89594 | 32248 ft | 454 kts | 173° |
| 2026-04-29 13:19 | 26.32208 | 113.91345 | 32248 ft | 454 kts | 173° |
| 2026-04-29 13:19 | 26.26102 | 113.93106 | 32257 ft | 453 kts | 173° |
| 2026-04-29 13:20 | 26.19987 | 113.94861 | 32246 ft | 453 kts | 173° |
| 2026-04-29 13:20 | 26.13887 | 113.96594 | 32253 ft | 451 kts | 173° |
| 2026-04-29 13:21 | 26.07790 | 113.98377 | 32232 ft | 454 kts | 173° |
| 2026-04-29 13:21 | 26.01680 | 114.00146 | 32236 ft | 453 kts | 173° |
| 2026-04-29 13:22 | 25.95579 | 114.01932 | 32223 ft | 454 kts | 173° |
| 2026-04-29 13:22 | 25.89488 | 114.03765 | 32242 ft | 452 kts | 172° |
| 2026-04-29 13:23 | 25.83399 | 114.05557 | 32218 ft | 453 kts | 173° |
| 2026-04-29 13:23 | 25.77318 | 114.07344 | 32213 ft | 452 kts | 173° |
| 2026-04-29 13:24 | 25.71227 | 114.09147 | 32218 ft | 454 kts | 172° |
| 2026-04-29 13:24 | 25.65119 | 114.10958 | 32214 ft | 455 kts | 172° |
| 2026-04-29 13:25 | 25.59030 | 114.12753 | 32199 ft | 456 kts | 172° |
| 2026-04-29 13:25 | 25.49825 | 114.15464 | 32205 ft | 457 kts | 172° |
| 2026-04-29 13:26 | 25.43682 | 114.17273 | 32204 ft | 456 kts | 172° |
| 2026-04-29 13:26 | 25.37548 | 114.19075 | 32191 ft | 456 kts | 172° |
| 2026-04-29 13:27 | 25.31405 | 114.20846 | 32229 ft | 457 kts | 171° |
| 2026-04-29 13:27 | 25.25270 | 114.22745 | 32181 ft | 457 kts | 172° |
| 2026-04-29 13:28 | 25.19117 | 114.24521 | 32186 ft | 458 kts | 171° |
| 2026-04-29 13:28 | 25.12957 | 114.26258 | 32179 ft | 454 kts | 175° |
| 2026-04-29 13:29 | 25.06767 | 114.26659 | 31967 ft | 444 kts | 189° |
| 2026-04-29 13:29 | 25.03736 | 114.26152 | 31664 ft | 438 kts | 197° |
| 2026-04-29 13:29 | 25.00752 | 114.25455 | 31374 ft | 439 kts | 197° |
| 2026-04-29 13:30 | 24.97765 | 114.24776 | 31086 ft | 439 kts | 196° |
| 2026-04-29 13:30 | 24.94758 | 114.24107 | 30782 ft | 442 kts | 196° |
| 2026-04-29 13:30 | 24.91738 | 114.23443 | 30497 ft | 444 kts | 196° |
| 2026-04-29 13:30 | 24.88707 | 114.22784 | 30187 ft | 445 kts | 195° |
| 2026-04-29 13:31 | 24.85661 | 114.22125 | 29897 ft | 447 kts | 195° |
| 2026-04-29 13:31 | 24.82654 | 114.21468 | 29593 ft | 447 kts | 196° |
| 2026-04-29 13:31 | 24.79597 | 114.20805 | 29308 ft | 448 kts | 196° |
| 2026-04-29 13:31 | 24.76538 | 114.20146 | 28985 ft | 449 kts | 195° |
| 2026-04-29 13:32 | 24.73465 | 114.19486 | 28702 ft | 450 kts | 195° |
| 2026-04-29 13:32 | 24.70385 | 114.18824 | 28411 ft | 452 kts | 195° |
| 2026-04-29 13:32 | 24.67290 | 114.18156 | 28103 ft | 454 kts | 195° |
| 2026-04-29 13:32 | 24.64184 | 114.17485 | 27818 ft | 456 kts | 196° |
| 2026-04-29 13:33 | 24.61063 | 114.16812 | 27516 ft | 458 kts | 195° |
| 2026-04-29 13:33 | 24.57927 | 114.16135 | 27218 ft | 460 kts | 195° |
| 2026-04-29 13:33 | 24.54773 | 114.15455 | 26914 ft | 462 kts | 195° |
| 2026-04-29 13:33 | 24.51614 | 114.14774 | 26624 ft | 464 kts | 195° |
| 2026-04-29 13:34 | 24.48435 | 114.14089 | 26321 ft | 466 kts | 195° |
| 2026-04-29 13:34 | 24.45245 | 114.13402 | 26023 ft | 468 kts | 195° |
| 2026-04-29 13:34 | 24.42045 | 114.12714 | 25726 ft | 469 kts | 195° |
| 2026-04-29 13:34 | 24.38835 | 114.12024 | 25425 ft | 470 kts | 195° |
| 2026-04-29 13:35 | 24.35677 | 114.11146 | 25113 ft | 466 kts | 203° |
| 2026-04-29 13:35 | 24.32708 | 114.09769 | 24824 ft | 461 kts | 211° |
| 2026-04-29 13:35 | 24.29987 | 114.07946 | 24522 ft | 456 kts | 217° |
| 2026-04-29 13:35 | 24.27329 | 114.06062 | 24223 ft | 455 kts | 215° |
| 2026-04-29 13:36 | 24.24649 | 114.04229 | 23917 ft | 453 kts | 216° |
| 2026-04-29 13:36 | 24.22002 | 114.02383 | 23633 ft | 450 kts | 216° |
| 2026-04-29 13:36 | 24.19352 | 114.00564 | 23341 ft | 449 kts | 214° |
| 2026-04-29 13:36 | 24.16698 | 113.98771 | 23034 ft | 446 kts | 217° |
| 2026-04-29 13:37 | 24.14101 | 113.96921 | 22716 ft | 444 kts | 216° |
| 2026-04-29 13:37 | 24.11517 | 113.95091 | 22415 ft | 441 kts | 217° |
| 2026-04-29 13:37 | 24.09064 | 113.93112 | 22101 ft | 436 kts | 223° |
| 2026-04-29 13:37 | 24.06832 | 113.90895 | 21815 ft | 432 kts | 226° |
| 2026-04-29 13:38 | 24.04633 | 113.88657 | 21521 ft | 431 kts | 225° |
| 2026-04-29 13:38 | 24.02434 | 113.86437 | 21223 ft | 430 kts | 225° |
| 2026-04-29 13:38 | 24.00260 | 113.84263 | 20931 ft | 429 kts | 225° |
| 2026-04-29 13:38 | 23.98058 | 113.82076 | 20617 ft | 427 kts | 225° |
| 2026-04-29 13:39 | 23.95857 | 113.79905 | 20322 ft | 425 kts | 225° |
| 2026-04-29 13:39 | 23.93659 | 113.77746 | 20018 ft | 424 kts | 225° |
| 2026-04-29 13:39 | 23.91463 | 113.75600 | 19727 ft | 423 kts | 224° |
| 2026-04-29 13:39 | 23.89276 | 113.73460 | 19420 ft | 421 kts | 224° |
| 2026-04-29 13:40 | 23.87104 | 113.71327 | 19109 ft | 418 kts | 225° |
| 2026-04-29 13:40 | 23.85137 | 113.69005 | 18654 ft | 411 kts | 230° |
| 2026-04-29 13:40 | 23.83027 | 113.66892 | 18311 ft | 413 kts | 220° |
| 2026-04-29 13:40 | 23.80715 | 113.65025 | 18034 ft | 415 kts | 220° |
| 2026-04-29 13:41 | 23.78511 | 113.63012 | 17714 ft | 412 kts | 224° |
| 2026-04-29 13:41 | 23.76380 | 113.60926 | 17471 ft | 410 kts | 224° |
| 2026-04-29 13:41 | 23.74243 | 113.58860 | 17107 ft | 410 kts | 225° |
| 2026-04-29 13:41 | 23.72150 | 113.56767 | 16805 ft | 406 kts | 225° |
| 2026-04-29 13:42 | 23.70057 | 113.54720 | 16530 ft | 403 kts | 224° |
| 2026-04-29 13:42 | 23.67976 | 113.52681 | 16212 ft | 401 kts | 225° |
| 2026-04-29 13:42 | 23.65919 | 113.50639 | 15924 ft | 398 kts | 225° |
| 2026-04-29 13:42 | 23.63872 | 113.48619 | 15620 ft | 396 kts | 225° |
| 2026-04-29 13:43 | 23.61828 | 113.46616 | 15317 ft | 394 kts | 224° |
| 2026-04-29 13:43 | 23.59796 | 113.44632 | 15018 ft | 391 kts | 224° |
| 2026-04-29 13:43 | 23.57769 | 113.42659 | 14716 ft | 389 kts | 224° |
| 2026-04-29 13:43 | 23.55756 | 113.40705 | 14419 ft | 387 kts | 224° |
| 2026-04-29 13:44 | 23.53617 | 113.38920 | 14107 ft | 389 kts | 215° |
| 2026-04-29 13:44 | 23.51218 | 113.37560 | 13807 ft | 390 kts | 206° |
| 2026-04-29 13:44 | 23.48648 | 113.36596 | 13527 ft | 390 kts | 202° |
| 2026-04-29 13:44 | 23.46113 | 113.35673 | 13229 ft | 389 kts | 202° |
| 2026-04-29 13:45 | 23.43561 | 113.34717 | 12924 ft | 388 kts | 203° |
| 2026-04-29 13:45 | 23.41025 | 113.33754 | 12626 ft | 385 kts | 203° |
| 2026-04-29 13:45 | 23.38494 | 113.32790 | 12322 ft | 383 kts | 203° |
| 2026-04-29 13:45 | 23.35982 | 113.31832 | 12021 ft | 381 kts | 203° |
| 2026-04-29 13:46 | 23.33496 | 113.30885 | 11886 ft | 380 kts | 203° |
| 2026-04-29 13:46 | 23.30996 | 113.29932 | 11852 ft | 378 kts | 203° |
| 2026-04-29 13:46 | 23.28568 | 113.29010 | 11831 ft | 362 kts | 203° |
| 2026-04-29 13:46 | 23.26236 | 113.28128 | 11605 ft | 348 kts | 203° |
| 2026-04-29 13:47 | 23.23993 | 113.27277 | 11402 ft | 336 kts | 203° |
| 2026-04-29 13:47 | 23.21822 | 113.26452 | 11188 ft | 325 kts | 203° |
| 2026-04-29 13:47 | 23.19721 | 113.25653 | 10987 ft | 316 kts | 203° |
| 2026-04-29 13:47 | 23.17666 | 113.24894 | 10783 ft | 309 kts | 199° |
| 2026-04-29 13:48 | 23.15538 | 113.24788 | 10537 ft | 312 kts | 170° |
| 2026-04-29 13:48 | 23.13580 | 113.25785 | 10387 ft | 311 kts | 151° |
| 2026-04-29 13:48 | 23.11869 | 113.27196 | 10170 ft | 307 kts | 142° |
| 2026-04-29 13:48 | 23.10327 | 113.28784 | 9974 ft | 304 kts | 139° |
| 2026-04-29 13:49 | 23.08846 | 113.30386 | 9762 ft | 298 kts | 138° |
| 2026-04-29 13:49 | 23.07385 | 113.31963 | 9558 ft | 294 kts | 138° |
| 2026-04-29 13:49 | 23.05946 | 113.33507 | 9345 ft | 286 kts | 139° |
| 2026-04-29 13:49 | 23.04545 | 113.34998 | 9017 ft | 279 kts | 139° |
| 2026-04-29 13:50 | 23.03162 | 113.36456 | 8630 ft | 275 kts | 139° |
| 2026-04-29 13:50 | 23.02930 | 113.36700 | 8564 ft | 274 kts | 139° |
| 2026-04-29 13:50 | 23.02798 | 113.36838 | 8525 ft | 274 kts | 138° |
| 2026-04-29 13:50 | 23.01436 | 113.38264 | 8154 ft | 270 kts | 138° |
| 2026-04-29 13:51 | 23.00093 | 113.39669 | 7773 ft | 267 kts | 138° |
| 2026-04-29 13:51 | 22.98763 | 113.41055 | 7402 ft | 263 kts | 137° |
| 2026-04-29 13:51 | 22.97448 | 113.42424 | 7026 ft | 260 kts | 137° |
| 2026-04-29 13:51 | 22.96149 | 113.43774 | 6653 ft | 257 kts | 137° |
| 2026-04-29 13:52 | 22.94863 | 113.45113 | 6274 ft | 255 kts | 136° |
| 2026-04-29 13:52 | 22.93590 | 113.46436 | 5902 ft | 252 kts | 136° |
| 2026-04-29 13:52 | 22.92325 | 113.47752 | 5531 ft | 251 kts | 136° |
| 2026-04-29 13:52 | 22.91069 | 113.49058 | 5150 ft | 250 kts | 136° |
| 2026-04-29 13:53 | 22.89820 | 113.50355 | 4777 ft | 248 kts | 136° |
| 2026-04-29 13:53 | 22.88579 | 113.51644 | 4403 ft | 246 kts | 136° |
| 2026-04-29 13:53 | 22.87347 | 113.52925 | 4022 ft | 245 kts | 135° |
| 2026-04-29 13:53 | 22.86121 | 113.54197 | 3656 ft | 245 kts | 136° |
| 2026-04-29 13:54 | 22.84880 | 113.55485 | 3300 ft | 250 kts | 134° |
| 2026-04-29 13:54 | 22.83912 | 113.57027 | 3001 ft | 246 kts | 102° |
| 2026-04-29 13:54 | 22.83958 | 113.58779 | 2992 ft | 228 kts | 71° |
| 2026-04-29 13:54 | 22.84496 | 113.60330 | 2977 ft | 215 kts | 61° |
| 2026-04-29 13:55 | 22.85181 | 113.61743 | 3007 ft | 210 kts | 59° |
| 2026-04-29 13:55 | 22.85874 | 113.63134 | 2996 ft | 211 kts | 59° |
| 2026-04-29 13:55 | 22.86564 | 113.64547 | 2987 ft | 212 kts | 59° |
| 2026-04-29 13:55 | 22.87199 | 113.65987 | 2976 ft | 213 kts | 72° |
| 2026-04-29 13:56 | 22.87089 | 113.67562 | 2995 ft | 215 kts | 117° |
| 2026-04-29 13:56 | 22.86024 | 113.68662 | 3014 ft | 212 kts | 151° |
| 2026-04-29 13:56 | 22.84761 | 113.69430 | 2977 ft | 204 kts | 147° |
| 2026-04-29 13:56 | 22.83575 | 113.70245 | 2976 ft | 201 kts | 151° |
| 2026-04-29 13:57 | 22.82343 | 113.70939 | 2984 ft | 199 kts | 153° |
| 2026-04-29 13:57 | 22.81109 | 113.71613 | 2993 ft | 199 kts | 154° |
| 2026-04-29 13:57 | 22.79873 | 113.72286 | 2978 ft | 198 kts | 154° |
| 2026-04-29 13:57 | 22.79057 | 113.72732 | 2958 ft | 200 kts | 154° |
| 2026-04-29 13:58 | 22.77396 | 113.73649 | 2659 ft | 202 kts | 155° |
| 2026-04-29 13:58 | 22.76166 | 113.74328 | 2386 ft | 194 kts | 156° |
| 2026-04-29 13:58 | 22.74986 | 113.74977 | 2131 ft | 185 kts | 156° |
| 2026-04-29 13:58 | 22.73867 | 113.75594 | 1889 ft | 176 kts | 155° |
| 2026-04-29 13:59 | 22.72811 | 113.76174 | 1682 ft | 164 kts | 155° |
| 2026-04-29 13:59 | 22.71846 | 113.76705 | 1490 ft | 147 kts | 153° |
| 2026-04-29 13:59 | 22.70980 | 113.77184 | 1252 ft | 140 kts | 149° |
| 2026-04-29 13:59 | 22.70065 | 113.77689 | 1106 ft | 157 kts | 149° |
| 2026-04-29 14:00 | 22.69102 | 113.78218 | 889 ft | 152 kts | 149° |
| 2026-04-29 14:00 | 22.68169 | 113.78733 | 690 ft | 149 kts | 150° |
| 2026-04-29 14:00 | 22.67244 | 113.79245 | 468 ft | 149 kts | 149° |
| 2026-04-29 14:00 | 22.66330 | 113.79743 | 288 ft | 146 kts | 150° |
| 2026-04-29 14:01 | 22.65426 | 113.80238 | 98 ft | 143 kts | 151° |
| 2026-04-29 14:01 | 22.64578 | 113.80728 | 16 ft | 124 kts | 158° |
| 2026-04-29 14:01 | 22.63938 | 113.81056 | 15 ft | 80 kts | 153° |
| 2026-04-29 14:01 | 22.63576 | 113.81257 | 14 ft | 46 kts | 153° |
| 2026-04-29 14:02 | 22.63378 | 113.81363 | 14 ft | 28 kts | 154° |
| 2026-04-29 14:02 | 22.63202 | 113.81440 | 14 ft | 26 kts | 168° |
| 2026-04-29 14:02 | 22.63076 | 113.81449 | 14 ft | 12 kts | 186° |
| 2026-04-29 14:02 | 22.62995 | 113.81444 | 14 ft | 12 kts | 182° |
| 2026-04-29 14:03 | 22.62915 | 113.81439 | 16 ft | 11 kts | 184° |
| 2026-04-29 14:03 | 22.62866 | 113.81436 | 14 ft | 0 kts | 183° |
| 2026-04-29 14:03 | 22.62863 | 113.81436 | 15 ft | 2 kts | 183° |
| 2026-04-29 14:03 | 22.62838 | 113.81431 | 16 ft | 5 kts | 201° |
| 2026-04-29 14:04 | 22.62826 | 113.81348 | 15 ft | 16 kts | 315° |
| 2026-04-29 14:04 | 22.62912 | 113.81298 | 14 ft | 11 kts | 334° |
| 2026-04-29 14:04 | 22.62979 | 113.81260 | 16 ft | 11 kts | 333° |
| 2026-04-29 14:04 | 22.63044 | 113.81225 | 15 ft | 10 kts | 333° |
| 2026-04-29 14:05 | 22.63114 | 113.81182 | 15 ft | 13 kts | 313° |
| 2026-04-29 14:05 | 22.63114 | 113.81079 | 14 ft | 17 kts | 263° |
| 2026-04-29 14:05 | 22.63103 | 113.80977 | 14 ft | 10 kts | 263° |
| 2026-04-29 14:05 | 22.63095 | 113.80906 | 16 ft | 9 kts | 263° |
| 2026-04-29 14:06 | 22.63075 | 113.80880 | 14 ft | 5 kts | 200° |
| 2026-04-29 14:06 | 22.63040 | 113.80880 | 14 ft | 4 kts | 174° |
| 2026-04-29 14:06 | 22.63031 | 113.80881 | 16 ft | 2 kts | 173° |
| 2026-04-29 14:06 | 22.63023 | 113.80882 | 16 ft | 1 kts | 173° |
| 2026-04-29 14:07 | 22.63018 | 113.80882 | 15 ft | 0 kts | 173° |